Time;durP1;ratioP1;P1;durP2;ratioP2;P2;SDS_P1;SDS_P2;PMS_P1;PMS_P2;Temp;Humidity;BMP_temperature;BMP_pressure;BME280_temperature;BME280_humidity;BME280_pressure;Samples;Min_cycle;Max_cycle;Signal;HPM_P1;HPM_P2
2021/09/28 00:01:17;;;;;;;;;;;23.20;62.30;;;;;;5104215;28;19925;-58
2021/09/28 00:03:44;;;;;;;;;;;23.20;62.30;;;;;;5054435;28;19975;-58
2021/09/28 00:06:11;;;;;;;;;;;23.20;62.30;;;;;;5057197;28;19924;-59
2021/09/28 00:08:41;;;;;;;;;;;23.20;62.30;;;;;;5059719;28;19971;-58
2021/09/28 00:11:09;;;;;;;;;;;23.20;62.30;;;;;;5073248;28;19925;-59
2021/09/28 00:13:36;;;;;;;;;;;23.10;62.20;;;;;;5062860;28;19932;-58
2021/09/28 00:16:03;;;;;;;;;;;23.20;62.30;;;;;;5080401;28;20032;-59
2021/09/28 00:18:30;;;;;;;;;;;23.20;62.30;;;;;;5082731;28;19924;-58
2021/09/28 00:20:58;;;;;;;;;;;23.10;62.20;;;;;;5075233;28;19974;-58
2021/09/28 00:23:25;;;;;;;;;;;23.10;62.20;;;;;;5077821;28;19924;-59
2021/09/28 00:25:52;;;;;;;;;;;23.10;62.20;;;;;;5076699;28;19931;-59
2021/09/28 00:28:19;;;;;;;;;;;23.20;62.90;;;;;;5090582;28;19924;-58
2021/09/28 00:30:46;;;;;;;;;;;23.10;62.10;;;;;;5058857;28;19968;-59
2021/09/28 00:33:13;;;;;;;;;;;23.10;62.10;;;;;;5086824;28;20027;-59
2021/09/28 00:35:54;;;;;;;;;;;23.10;62.00;;;;;;5074021;28;19925;-59
2021/09/28 00:38:21;;;;;;;;;;;23.10;62.00;;;;;;5075091;28;20410;-58
2021/09/28 00:40:48;;;;;;;;;;;23.10;62.00;;;;;;5074793;28;19964;-59
2021/09/28 00:43:15;;;;;;;;;;;23.10;62.10;;;;;;5063089;28;20016;-59
2021/09/28 00:45:42;;;;;;;;;;;23.10;62.00;;;;;;5070513;28;19960;-59
2021/09/28 00:48:09;;;;;;;;;;;23.10;62.00;;;;;;5075966;28;19931;-59
2021/09/28 00:50:36;;;;;;;;;;;23.10;62.00;;;;;;5073318;28;19963;-59
2021/09/28 00:53:04;;;;;;;;;;;23.10;62.00;;;;;;5079631;28;19931;-59
2021/09/28 00:55:31;;;;;;;;;;;23.10;62.00;;;;;;5089151;28;20399;-57
2021/09/28 00:58:02;;;;;;;;;;;23.10;61.90;;;;;;5073600;28;19932;-58
2021/09/28 01:00:30;;;;;;;;;;;23.10;61.90;;;;;;5058691;28;19924;-60
2021/09/28 01:02:57;;;;;;;;;;;23.10;61.90;;;;;;5075438;28;20402;-59
2021/09/28 01:05:25;;;;;;;;;;;23.10;61.90;;;;;;5073685;28;20351;-59
2021/09/28 01:07:52;;;;;;;;;;;23.10;61.90;;;;;;5073212;28;19924;-60
2021/09/28 01:10:18;;;;;;;;;;;23.10;61.90;;;;;;5073202;28;20295;-57
2021/09/28 01:12:46;;;;;;;;;;;23.10;61.90;;;;;;5083344;28;20365;-59
2021/09/28 01:15:13;;;;;;;;;;;23.10;61.90;;;;;;5072646;28;19960;-58
2021/09/28 01:17:41;;;;;;;;;;;23.10;61.90;;;;;;5057930;28;20023;-59
2021/09/28 01:20:08;;;;;;;;;;;23.10;61.80;;;;;;5058577;28;19993;-58
2021/09/28 01:22:35;;;;;;;;;;;23.10;61.80;;;;;;5061061;28;20023;-58
2021/09/28 01:25:02;;;;;;;;;;;23.10;61.80;;;;;;5075160;28;19971;-59
2021/09/28 01:27:34;;;;;;;;;;;23.10;61.80;;;;;;5056438;28;20020;-58
2021/09/28 01:30:00;;;;;;;;;;;23.10;61.80;;;;;;5072960;28;19924;-57
2021/09/28 01:32:27;;;;;;;;;;;23.10;61.80;;;;;;5056375;28;19975;-58
2021/09/28 01:34:54;;;;;;;;;;;23.10;61.80;;;;;;5058566;28;19931;-60
2021/09/28 01:37:21;;;;;;;;;;;23.10;61.80;;;;;;5072540;28;19950;-58
2021/09/28 01:39:48;;;;;;;;;;;23.10;61.80;;;;;;5074878;28;19963;-59
2021/09/28 01:42:15;;;;;;;;;;;23.10;61.80;;;;;;5075085;28;19928;-59
2021/09/28 01:44:42;;;;;;;;;;;23.10;61.80;;;;;;5068793;28;19925;-58
2021/09/28 01:47:09;;;;;;;;;;;23.10;61.80;;;;;;5066853;28;20391;-58
2021/09/28 01:49:36;;;;;;;;;;;23.10;61.80;;;;;;5084196;28;19939;-59
2021/09/28 01:52:03;;;;;;;;;;;23.10;61.80;;;;;;5058200;28;19967;-58
2021/09/28 01:54:30;;;;;;;;;;;23.10;61.80;;;;;;5073874;28;19943;-57
2021/09/28 01:56:57;;;;;;;;;;;23.10;61.70;;;;;;5055517;28;19925;-57
2021/09/28 01:59:24;;;;;;;;;;;23.10;61.80;;;;;;5073568;28;19925;-58
2021/09/28 02:01:51;;;;;;;;;;;23.10;61.70;;;;;;5072157;28;20285;-58
2021/09/28 02:04:18;;;;;;;;;;;23.10;61.70;;;;;;5073294;28;19924;-58
2021/09/28 02:06:45;;;;;;;;;;;23.10;61.70;;;;;;5063164;28;19964;-58
2021/09/28 02:09:12;;;;;;;;;;;23.10;61.70;;;;;;5057997;28;19968;-59
2021/09/28 02:11:39;;;;;;;;;;;23.10;61.70;;;;;;5057723;28;19968;-58
2021/09/28 02:14:07;;;;;;;;;;;23.10;61.70;;;;;;5062110;28;20296;-58
2021/09/28 02:16:34;;;;;;;;;;;23.10;61.70;;;;;;5070813;28;20368;-58
2021/09/28 02:19:01;;;;;;;;;;;23.10;61.70;;;;;;5056297;28;20384;-59
2021/09/28 02:21:28;;;;;;;;;;;23.10;61.70;;;;;;5055939;28;19925;-59
2021/09/28 02:23:55;;;;;;;;;;;23.10;61.70;;;;;;5055161;28;20019;-59
2021/09/28 02:26:22;;;;;;;;;;;23.10;61.70;;;;;;5071710;28;20015;-58
2021/09/28 02:28:49;;;;;;;;;;;23.10;61.60;;;;;;5059658;28;20376;-57
2021/09/28 02:31:15;;;;;;;;;;;23.10;61.60;;;;;;5059005;28;19990;-59
2021/09/28 02:33:43;;;;;;;;;;;23.10;61.50;;;;;;5057350;28;19947;-58
2021/09/28 02:36:09;;;;;;;;;;;23.10;62.30;;;;;;5066243;28;19936;-59
2021/09/28 02:38:37;;;;;;;;;;;23.10;61.50;;;;;;5066982;28;20343;-57
2021/09/28 02:41:04;;;;;;;;;;;23.10;61.50;;;;;;5058281;28;19979;-58
2021/09/28 02:43:31;;;;;;;;;;;23.10;61.60;;;;;;5060129;28;20334;-58
2021/09/28 02:45:58;;;;;;;;;;;23.10;61.50;;;;;;5072538;28;19986;-59
2021/09/28 02:48:25;;;;;;;;;;;23.10;61.50;;;;;;5074076;28;19963;-58
2021/09/28 02:50:52;;;;;;;;;;;23.10;61.50;;;;;;5053511;28;20016;-60
2021/09/28 02:53:19;;;;;;;;;;;23.10;61.50;;;;;;5055797;28;19970;-58
2021/09/28 02:55:46;;;;;;;;;;;23.10;61.50;;;;;;5070206;28;19935;-58
2021/09/28 02:58:13;;;;;;;;;;;23.10;61.50;;;;;;5061773;28;19931;-57
2021/09/28 03:00:40;;;;;;;;;;;23.10;61.50;;;;;;5076035;28;19967;-58
2021/09/28 03:03:09;;;;;;;;;;;23.10;61.40;;;;;;5079293;28;21778;-58
2021/09/28 03:05:36;;;;;;;;;;;23.10;61.40;;;;;;5066606;28;20339;-58
2021/09/28 03:08:03;;;;;;;;;;;23.10;61.40;;;;;;5061745;28;19924;-58
2021/09/28 03:10:30;;;;;;;;;;;23.10;61.40;;;;;;5071675;28;20011;-57
2021/09/28 03:12:57;;;;;;;;;;;23.10;61.40;;;;;;5089325;28;20334;-58
2021/09/28 03:15:24;;;;;;;;;;;23.10;61.40;;;;;;5073606;28;19970;-59
2021/09/28 03:17:51;;;;;;;;;;;23.10;61.60;;;;;;5071840;28;19924;-59
2021/09/28 03:20:18;;;;;;;;;;;23.10;61.30;;;;;;5070226;28;19924;-58
2021/09/28 03:22:45;;;;;;;;;;;23.10;61.30;;;;;;5071660;28;19956;-58
2021/09/28 03:25:12;;;;;;;;;;;23.10;61.30;;;;;;5071832;28;20372;-57
2021/09/28 03:27:39;;;;;;;;;;;23.10;61.30;;;;;;5073060;28;20007;-58
2021/09/28 03:30:07;;;;;;;;;;;23.10;61.40;;;;;;5072061;28;20349;-58
2021/09/28 03:32:36;;;;;;;;;;;23.10;61.30;;;;;;5070898;28;19990;-58
2021/09/28 03:35:07;;;;;;;;;;;23.10;61.40;;;;;;5068274;28;19978;-58
2021/09/28 03:37:35;;;;;;;;;;;23.10;61.30;;;;;;5059768;28;19924;-59
2021/09/28 03:40:03;;;;;;;;;;;23.10;61.30;;;;;;5072782;28;19930;-59
2021/09/28 03:42:30;;;;;;;;;;;23.10;61.30;;;;;;5076178;28;19936;-56
2021/09/28 03:44:57;;;;;;;;;;;23.10;61.30;;;;;;5094072;28;20343;-57
2021/09/28 03:47:24;;;;;;;;;;;23.10;61.30;;;;;;5077298;28;20387;-58
2021/09/28 03:49:51;;;;;;;;;;;23.10;61.30;;;;;;5076711;28;19924;-58
2021/09/28 03:52:18;;;;;;;;;;;23.10;61.30;;;;;;5076974;28;19925;-58
2021/09/28 03:54:45;;;;;;;;;;;23.10;61.30;;;;;;5076915;28;19924;-59
2021/09/28 03:57:12;;;;;;;;;;;23.10;61.30;;;;;;5076610;28;19974;-57
2021/09/28 03:59:39;;;;;;;;;;;23.10;61.30;;;;;;5075465;28;19924;-58
2021/09/28 04:02:06;;;;;;;;;;;23.10;61.30;;;;;;5075521;28;19928;-59
2021/09/28 04:04:33;;;;;;;;;;;23.10;61.30;;;;;;5074256;28;19978;-59
2021/09/28 04:07:00;;;;;;;;;;;23.10;61.30;;;;;;5075337;28;19950;-58
2021/09/28 04:09:27;;;;;;;;;;;23.10;61.30;;;;;;5057876;28;19978;-60
2021/09/28 04:11:54;;;;;;;;;;;23.10;61.30;;;;;;5075148;28;19970;-59
2021/09/28 04:14:21;;;;;;;;;;;23.10;61.20;;;;;;5077485;28;19925;-59
2021/09/28 04:16:48;;;;;;;;;;;23.10;61.30;;;;;;5075222;28;19930;-59
2021/09/28 04:19:15;;;;;;;;;;;23.10;62.00;;;;;;5075055;28;19924;-56
2021/09/28 04:21:42;;;;;;;;;;;23.10;61.20;;;;;;5066671;28;20020;-58
2021/09/28 04:24:12;;;;;;;;;;;23.10;61.20;;;;;;5067687;28;19924;-58
2021/09/28 04:26:39;;;;;;;;;;;23.10;61.20;;;;;;5075953;28;20372;-60
2021/09/28 04:29:07;;;;;;;;;;;23.10;61.20;;;;;;5076237;28;19971;-60
2021/09/28 04:31:34;;;;;;;;;;;23.10;61.20;;;;;;5074027;28;19925;-57
2021/09/28 04:34:01;;;;;;;;;;;23.10;61.20;;;;;;5059473;28;19964;-58
2021/09/28 04:36:28;;;;;;;;;;;23.10;61.20;;;;;;5075236;28;20057;-59
2021/09/28 04:38:55;;;;;;;;;;;23.10;61.20;;;;;;5057251;28;19994;-58
2021/09/28 04:41:22;;;;;;;;;;;23.10;61.10;;;;;;5091179;28;19950;-59
2021/09/28 04:43:50;;;;;;;;;;;23.10;61.10;;;;;;5077456;28;20530;-59
2021/09/28 04:46:17;;;;;;;;;;;23.10;61.10;;;;;;5074815;28;20027;-59
2021/09/28 04:48:44;;;;;;;;;;;23.10;61.10;;;;;;5074481;28;19974;-59
2021/09/28 04:51:11;;;;;;;;;;;23.10;61.10;;;;;;5075874;28;19924;-58
2021/09/28 04:53:38;;;;;;;;;;;23.10;61.10;;;;;;5074296;28;19951;-58
2021/09/28 04:56:06;;;;;;;;;;;23.10;61.10;;;;;;5074445;28;19987;-58
2021/09/28 04:58:33;;;;;;;;;;;23.10;61.10;;;;;;5075482;28;20007;-56
2021/09/28 05:01:00;;;;;;;;;;;23.10;61.00;;;;;;5076067;28;19947;-59
2021/09/28 05:03:27;;;;;;;;;;;23.10;61.00;;;;;;5076213;28;19924;-59
2021/09/28 05:05:54;;;;;;;;;;;23.10;61.10;;;;;;5074753;28;19925;-58
2021/09/28 05:08:21;;;;;;;;;;;23.10;61.00;;;;;;5058621;28;19925;-59
2021/09/28 05:10:53;;;;;;;;;;;23.10;61.00;;;;;;5087518;28;20372;-59
2021/09/28 05:13:20;;;;;;;;;;;23.10;61.00;;;;;;5074626;28;20326;-58
2021/09/28 05:15:46;;;;;;;;;;;23.10;61.00;;;;;;5073079;28;20021;-56
2021/09/28 05:18:14;;;;;;;;;;;23.10;61.00;;;;;;5074269;28;19946;-58
2021/09/28 05:20:41;;;;;;;;;;;23.10;60.90;;;;;;5081946;28;19928;-60
2021/09/28 05:23:08;;;;;;;;;;;23.10;61.00;;;;;;5082278;28;19971;-58
2021/09/28 05:25:35;;;;;;;;;;;23.20;61.00;;;;;;5063111;28;19924;-60
2021/09/28 05:28:02;;;;;;;;;;;23.10;60.90;;;;;;5087711;28;20376;-60
2021/09/28 05:30:29;;;;;;;;;;;23.20;60.90;;;;;;5056867;28;20335;-59
2021/09/28 05:32:56;;;;;;;;;;;23.20;60.90;;;;;;5074345;28;19932;-59
2021/09/28 05:35:23;;;;;;;;;;;23.20;60.80;;;;;;5091069;28;19924;-58
2021/09/28 05:37:50;;;;;;;;;;;23.20;60.80;;;;;;5089212;28;19931;-59
2021/09/28 05:40:17;;;;;;;;;;;23.20;60.80;;;;;;5066081;28;19932;-59
2021/09/28 05:42:44;;;;;;;;;;;23.20;60.80;;;;;;5068078;28;19924;-58
2021/09/28 05:45:11;;;;;;;;;;;23.20;60.70;;;;;;5073522;28;19978;-58
2021/09/28 05:47:38;;;;;;;;;;;23.20;60.70;;;;;;5074864;28;19932;-59
2021/09/28 05:50:05;;;;;;;;;;;23.20;60.70;;;;;;5071250;28;20016;-58
2021/09/28 05:52:32;;;;;;;;;;;23.20;60.60;;;;;;5060241;28;20373;-60
2021/09/28 05:55:00;;;;;;;;;;;23.20;60.60;;;;;;5074601;28;20019;-58
2021/09/28 05:57:27;;;;;;;;;;;23.20;60.60;;;;;;5057299;28;19964;-59
2021/09/28 05:59:54;;;;;;;;;;;23.20;60.60;;;;;;5090823;28;20007;-59
2021/09/28 06:02:21;;;;;;;;;;;23.20;60.60;;;;;;5057802;28;19974;-57
2021/09/28 06:04:48;;;;;;;;;;;23.20;60.50;;;;;;5071889;28;19956;-56
2021/09/28 06:07:18;;;;;;;;;;;23.20;60.50;;;;;;5073110;28;19925;-58
2021/09/28 06:09:45;;;;;;;;;;;23.30;60.60;;;;;;5065693;28;20428;-59
2021/09/28 06:12:13;;;;;;;;;;;23.30;60.50;;;;;;5064926;28;19925;-60
2021/09/28 06:14:40;;;;;;;;;;;23.30;60.50;;;;;;5058863;28;19960;-59
2021/09/28 06:17:08;;;;;;;;;;;23.30;60.50;;;;;;5073036;28;19991;-60
2021/09/28 06:19:36;;;;;;;;;;;23.30;60.50;;;;;;5060906;28;19950;-57
2021/09/28 06:22:04;;;;;;;;;;;23.30;60.50;;;;;;5074144;28;19925;-60
2021/09/28 06:24:32;;;;;;;;;;;23.30;60.50;;;;;;5055761;28;19929;-58
2021/09/28 06:27:04;;;;;;;;;;;23.30;60.50;;;;;;5090874;28;20298;-59
2021/09/28 06:29:31;;;;;;;;;;;23.30;61.20;;;;;;5104739;28;20369;-58
2021/09/28 06:31:59;;;;;;;;;;;23.30;60.50;;;;;;5089688;28;20276;-60
2021/09/28 06:34:26;;;;;;;;;;;23.30;60.50;;;;;;5075845;28;19929;-58
2021/09/28 06:36:53;;;;;;;;;;;23.30;60.50;;;;;;5061171;28;20591;-59
2021/09/28 06:39:20;;;;;;;;;;;23.30;60.50;;;;;;5066446;28;19969;-59
2021/09/28 06:41:48;;;;;;;;;;;23.30;60.40;;;;;;5071054;28;20408;-58
2021/09/28 06:44:15;;;;;;;;;;;23.30;60.40;;;;;;5072235;28;19997;-59
2021/09/28 06:46:42;;;;;;;;;;;23.30;60.40;;;;;;5073435;28;19929;-58
2021/09/28 06:49:09;;;;;;;;;;;23.30;60.40;;;;;;5073574;28;19925;-59
2021/09/28 06:51:37;;;;;;;;;;;23.30;60.30;;;;;;5072034;28;20557;-58
2021/09/28 06:54:04;;;;;;;;;;;23.30;60.20;;;;;;5071828;28;20392;-58
2021/09/28 06:56:31;;;;;;;;;;;23.40;60.30;;;;;;5055009;28;20282;-58
2021/09/28 06:58:58;;;;;;;;;;;23.30;60.20;;;;;;5073845;28;20336;-59
2021/09/28 07:01:25;;;;;;;;;;;23.40;60.20;;;;;;5073712;28;20007;-59
2021/09/28 07:03:53;;;;;;;;;;;23.40;60.20;;;;;;5072734;28;19963;-59
2021/09/28 07:06:21;;;;;;;;;;;23.30;60.10;;;;;;5068596;28;20042;-60
2021/09/28 07:08:50;;;;;;;;;;;23.40;60.20;;;;;;5073166;28;20110;-59
2021/09/28 07:11:17;;;;;;;;;;;23.40;60.20;;;;;;5067918;28;20002;-60
2021/09/28 07:13:44;;;;;;;;;;;23.40;60.10;;;;;;5058964;28;19964;-59
2021/09/28 07:16:12;;;;;;;;;;;23.40;60.20;;;;;;5070463;28;20007;-59
2021/09/28 07:18:39;;;;;;;;;;;23.40;60.10;;;;;;5055691;28;20007;-60
2021/09/28 07:21:06;;;;;;;;;;;23.40;60.10;;;;;;5072290;28;19994;-59
2021/09/28 07:23:33;;;;;;;;;;;23.40;60.20;;;;;;5071330;28;19979;-59
2021/09/28 07:26:01;;;;;;;;;;;23.40;60.20;;;;;;5070904;28;19944;-58
2021/09/28 07:28:28;;;;;;;;;;;23.40;60.20;;;;;;5073872;28;19925;-59
2021/09/28 07:30:55;;;;;;;;;;;23.40;60.20;;;;;;5071868;28;20447;-59
2021/09/28 07:33:22;;;;;;;;;;;23.40;60.20;;;;;;5071968;28;19931;-58
2021/09/28 07:35:49;;;;;;;;;;;23.40;60.20;;;;;;5064269;28;19928;-60
2021/09/28 07:38:17;;;;;;;;;;;23.40;60.20;;;;;;5061982;28;19925;-58
2021/09/28 07:40:48;;;;;;;;;;;23.40;60.20;;;;;;5073005;28;20280;-59
2021/09/28 07:43:16;;;;;;;;;;;23.50;60.30;;;;;;5074804;28;19924;-57
2021/09/28 07:45:43;;;;;;;;;;;23.40;60.20;;;;;;5086472;28;20338;-59
2021/09/28 07:48:11;;;;;;;;;;;23.50;60.30;;;;;;5054549;28;19956;-57
2021/09/28 07:50:40;;;;;;;;;;;23.50;60.30;;;;;;5054449;28;19925;-58
2021/09/28 07:53:07;;;;;;;;;;;23.50;60.30;;;;;;5055586;28;20069;-58
2021/09/28 07:55:35;;;;;;;;;;;23.50;60.20;;;;;;5070323;28;19925;-58
2021/09/28 07:58:02;;;;;;;;;;;23.50;60.20;;;;;;5071452;28;19928;-58
2021/09/28 08:00:29;;;;;;;;;;;23.50;60.20;;;;;;5073156;28;19964;-60
2021/09/28 08:02:57;;;;;;;;;;;23.50;60.20;;;;;;5073666;28;20035;-59
2021/09/28 08:05:24;;;;;;;;;;;23.50;60.30;;;;;;5065028;28;20359;-59
2021/09/28 08:07:51;;;;;;;;;;;23.50;60.30;;;;;;5060285;28;20442;-58
2021/09/28 08:10:18;;;;;;;;;;;23.50;60.20;;;;;;5071438;28;19925;-60
2021/09/28 08:12:46;;;;;;;;;;;23.50;60.30;;;;;;5071213;28;20007;-58
2021/09/28 08:15:13;;;;;;;;;;;23.60;60.30;;;;;;5072733;28;19974;-58
2021/09/28 08:17:40;;;;;;;;;;;23.60;60.30;;;;;;5065690;28;19925;-58
2021/09/28 08:20:09;;;;;;;;;;;23.60;60.20;;;;;;5070658;28;20434;-59
2021/09/28 08:22:38;;;;;;;;;;;23.60;60.20;;;;;;5071472;28;19924;-58
2021/09/28 08:25:11;;;;;;;;;;;23.60;60.30;;;;;;5058728;28;19928;-59
2021/09/28 08:30:24;;;;;;;;;;;23.70;60.20;;;;;;5088630;28;19977;-58
2021/09/28 08:32:51;;;;;;;;;;;23.60;60.20;;;;;;5080250;28;20019;-58
2021/09/28 08:35:18;;;;;;;;;;;23.70;60.20;;;;;;5074795;28;19984;-57
2021/09/28 08:37:45;;;;;;;;;;;23.70;60.20;;;;;;5069506;28;19925;-59
2021/09/28 08:40:13;;;;;;;;;;;23.70;60.20;;;;;;5059693;28;19975;-58
2021/09/28 08:42:40;;;;;;;;;;;23.70;60.20;;;;;;5062566;28;19924;-59
2021/09/28 08:45:09;;;;;;;;;;;23.70;60.30;;;;;;5074666;28;19924;-60
2021/09/28 08:47:43;;;;;;;;;;;23.60;60.20;;;;;;5057365;28;19932;-58
2021/09/28 08:50:18;;;;;;;;;;;23.60;60.40;;;;;;5074771;28;20438;-60
2021/09/28 08:52:46;;;;;;;;;;;23.60;60.30;;;;;;5075230;28;19975;-60
2021/09/28 08:55:19;;;;;;;;;;;23.60;60.30;;;;;;5091800;28;19924;-59
2021/09/28 08:57:47;;;;;;;;;;;23.60;60.40;;;;;;5075477;28;20015;-59
2021/09/28 09:00:16;;;;;;;;;;;23.60;60.30;;;;;;5061262;28;19925;-59
2021/09/28 09:02:45;;;;;;;;;;;23.60;60.30;;;;;;5070458;28;20334;-59
2021/09/28 09:05:16;;;;;;;;;;;23.60;61.10;;;;;;5074290;28;19931;-59
2021/09/28 09:07:44;;;;;;;;;;;23.70;60.30;;;;;;5065886;28;19929;-60
2021/09/28 09:10:11;;;;;;;;;;;23.70;60.40;;;;;;5065390;28;20295;-59
2021/09/28 09:12:42;;;;;;;;;;;23.70;60.40;;;;;;5075758;28;19967;-59
2021/09/28 09:15:16;;;;;;;;;;;23.70;60.40;;;;;;5071559;28;19947;-59
2021/09/28 09:17:44;;;;;;;;;;;23.70;60.40;;;;;;5061706;28;19924;-59
2021/09/28 09:20:24;;;;;;;;;;;23.70;60.40;;;;;;5090496;28;20376;-59
2021/09/28 09:22:52;;;;;;;;;;;23.70;60.40;;;;;;5059589;28;20283;-58
2021/09/28 09:25:20;;;;;;;;;;;23.70;60.30;;;;;;5124775;27;19928;-60
2021/09/28 09:27:47;;;;;;;;;;;23.70;60.30;;;;;;5090712;28;19928;-59
2021/09/28 09:30:20;;;;;;;;;;;23.70;60.30;;;;;;5075116;28;20322;-59
2021/09/28 09:32:56;;;;;;;;;;;23.70;60.30;;;;;;5059575;28;19929;-59
2021/09/28 09:35:23;;;;;;;;;;;23.70;60.30;;;;;;5059471;28;20269;-60
2021/09/28 09:37:51;;;;;;;;;;;23.70;60.10;;;;;;5071411;28;19964;-59
2021/09/28 09:40:38;;;;;;;;;;;23.80;60.20;;;;;;5073481;28;19959;-59
2021/09/28 09:43:06;;;;;;;;;;;23.80;60.10;;;;;;5072274;28;19928;-58
2021/09/28 09:45:33;;;;;;;;;;;23.80;60.00;;;;;;5073264;28;19925;-60
2021/09/28 09:48:00;;;;;;;;;;;23.80;60.00;;;;;;5073225;28;19946;-58
2021/09/28 09:50:27;;;;;;;;;;;23.90;60.80;;;;;;5073196;28;19928;-59
2021/09/28 09:52:57;;;;;;;;;;;23.90;60.00;;;;;;5074446;28;19925;-60
2021/09/28 09:55:25;;;;;;;;;;;23.90;60.00;;;;;;5071998;28;19939;-59
2021/09/28 09:57:53;;;;;;;;;;;23.90;59.90;;;;;;5074988;28;19982;-59
2021/09/28 10:00:20;;;;;;;;;;;23.90;59.90;;;;;;5072477;28;19924;-59
2021/09/28 10:02:48;;;;;;;;;;;23.90;59.80;;;;;;5074458;28;20434;-57
2021/09/28 10:05:16;;;;;;;;;;;23.90;59.90;;;;;;5073150;28;20345;-59
2021/09/28 10:07:43;;;;;;;;;;;23.90;59.80;;;;;;5071987;28;19956;-60
2021/09/28 10:10:17;;;;;;;;;;;23.90;59.90;;;;;;5074235;28;19925;-58
2021/09/28 10:12:44;;;;;;;;;;;23.90;60.00;;;;;;5071779;28;19924;-58
2021/09/28 10:15:12;;;;;;;;;;;23.90;60.00;;;;;;5073289;28;20452;-59
2021/09/28 10:17:40;;;;;;;;;;;23.90;60.00;;;;;;5075281;28;20002;-60
2021/09/28 10:20:08;;;;;;;;;;;23.90;60.10;;;;;;5073106;28;19972;-58
2021/09/28 10:22:35;;;;;;;;;;;23.90;60.20;;;;;;5072923;28;19963;-59
2021/09/28 10:27:49;;;;;;;;;;;23.80;60.20;;;;;;5058996;28;19932;-59
2021/09/28 10:30:31;;;;;;;;;;;23.80;60.20;;;;;;5074304;28;19927;-59
2021/09/28 10:32:59;;;;;;;;;;;23.80;60.30;;;;;;5056255;28;20004;-59
2021/09/28 10:35:26;;;;;;;;;;;23.80;60.40;;;;;;5073405;28;20002;-59
2021/09/28 10:38:01;;;;;;;;;;;23.80;60.50;;;;;;5073157;28;19931;-58
2021/09/28 10:40:28;;;;;;;;;;;23.80;60.40;;;;;;5056079;28;19929;-59
2021/09/28 10:43:02;;;;;;;;;;;23.80;60.40;;;;;;5058238;28;19932;-59
2021/09/28 10:45:29;;;;;;;;;;;23.80;60.50;;;;;;5070023;28;19986;-59
2021/09/28 10:47:59;;;;;;;;;;;23.80;60.50;;;;;;5073592;28;19924;-59
2021/09/28 10:50:31;;;;;;;;;;;23.80;60.40;;;;;;5062967;28;20431;-59
2021/09/28 10:53:00;;;;;;;;;;;23.80;60.50;;;;;;5071528;28;19929;-59
2021/09/28 10:55:28;;;;;;;;;;;23.80;60.40;;;;;;5071847;28;20338;-59
2021/09/28 10:57:56;;;;;;;;;;;23.80;60.50;;;;;;5072078;28;20376;-59
2021/09/28 11:00:24;;;;;;;;;;;23.80;60.50;;;;;;5074566;28;19924;-59
2021/09/28 11:02:51;;;;;;;;;;;23.70;60.40;;;;;;5073496;28;19924;-59
2021/09/28 11:05:40;;;;;;;;;;;23.80;60.60;;;;;;5072467;28;19986;-59
2021/09/28 11:08:08;;;;;;;;;;;23.80;60.60;;;;;;5056128;28;19964;-58
2021/09/28 11:10:36;;;;;;;;;;;23.80;60.60;;;;;;5054422;28;20032;-58
2021/09/28 11:13:09;;;;;;;;;;;23.80;60.70;;;;;;5054758;28;19932;-59
2021/09/28 11:15:37;;;;;;;;;;;23.80;60.70;;;;;;5070971;28;20384;-58
2021/09/28 11:18:07;;;;;;;;;;;23.80;60.60;;;;;;5057604;28;19924;-58
2021/09/28 11:20:34;;;;;;;;;;;23.80;60.70;;;;;;5083940;28;19931;-58
2021/09/28 11:23:07;;;;;;;;;;;23.80;60.70;;;;;;5067510;28;20005;-58
2021/09/28 11:25:35;;;;;;;;;;;23.80;60.70;;;;;;5056687;28;19971;-58
2021/09/28 11:28:02;;;;;;;;;;;23.80;60.80;;;;;;5066310;28;19932;-58
2021/09/28 11:30:34;;;;;;;;;;;23.80;60.70;;;;;;5067569;28;19925;-58
2021/09/28 11:33:04;;;;;;;;;;;23.80;60.70;;;;;;5057799;28;19960;-58
2021/09/28 11:35:32;;;;;;;;;;;23.80;60.60;;;;;;5056622;28;19924;-58
2021/09/28 11:38:00;;;;;;;;;;;23.80;60.60;;;;;;5058075;28;20441;-58
2021/09/28 11:40:35;;;;;;;;;;;23.80;60.60;;;;;;5071680;28;19956;-59
2021/09/28 11:43:21;;;;;;;;;;;23.90;60.60;;;;;;5054521;28;19931;-59
2021/09/28 11:45:59;;;;;;;;;;;23.90;60.60;;;;;;5073194;28;19932;-59
2021/09/28 11:48:27;;;;;;;;;;;23.90;60.50;;;;;;5063361;28;19973;-59
2021/09/28 11:50:54;;;;;;;;;;;23.90;60.50;;;;;;5071022;28;20384;-59
2021/09/28 11:53:22;;;;;;;;;;;23.90;60.60;;;;;;5073624;28;20003;-58
2021/09/28 11:55:49;;;;;;;;;;;23.80;60.50;;;;;;5072517;28;19928;-59
2021/09/28 11:58:16;;;;;;;;;;;23.80;60.60;;;;;;5083634;28;19990;-59
2021/09/28 12:00:44;;;;;;;;;;;23.80;60.70;;;;;;5078903;28;19925;-59
2021/09/28 12:03:12;;;;;;;;;;;23.80;60.70;;;;;;5075920;28;20015;-59
2021/09/28 12:06:03;;;;;;;;;;;23.80;61.40;;;;;;5076891;28;20363;-59
2021/09/28 12:08:32;;;;;;;;;;;23.90;60.70;;;;;;5068601;28;20001;-59
2021/09/28 12:11:03;;;;;;;;;;;23.90;60.60;;;;;;5060102;28;19929;-60
2021/09/28 12:13:31;;;;;;;;;;;23.90;60.60;;;;;;5065424;28;19950;-59
2021/09/28 12:15:58;;;;;;;;;;;23.90;60.70;;;;;;5076396;28;20016;-59
2021/09/28 12:18:25;;;;;;;;;;;23.90;60.60;;;;;;5075132;28;20042;-59
2021/09/28 12:20:52;;;;;;;;;;;23.90;60.60;;;;;;5059287;28;20391;-59
2021/09/28 12:23:18;;;;;;;;;;;23.90;60.50;;;;;;5075619;28;20062;-59
2021/09/28 12:25:46;;;;;;;;;;;23.90;60.60;;;;;;5073791;28;19928;-60
2021/09/28 12:28:19;;;;;;;;;;;23.90;60.50;;;;;;5075302;28;19999;-60
2021/09/28 12:30:50;;;;;;;;;;;23.90;60.60;;;;;;5087974;28;19924;-59
2021/09/28 12:33:17;;;;;;;;;;;23.90;60.70;;;;;;5078895;28;19932;-59
2021/09/28 12:35:44;;;;;;;;;;;23.90;60.60;;;;;;5073952;28;20023;-59
2021/09/28 12:38:13;;;;;;;;;;;23.90;60.80;;;;;;5076454;28;20261;-59
2021/09/28 12:40:43;;;;;;;;;;;23.90;60.80;;;;;;5074860;28;19950;-60
2021/09/28 12:43:22;;;;;;;;;;;23.80;60.70;;;;;;5074794;28;19974;-58
2021/09/28 12:45:51;;;;;;;;;;;23.90;60.90;;;;;;5060594;28;19937;-59
2021/09/28 12:48:24;;;;;;;;;;;23.90;60.80;;;;;;5060633;28;20399;-58
2021/09/28 12:51:01;;;;;;;;;;;23.90;60.80;;;;;;5074771;28;19928;-60
2021/09/28 12:53:29;;;;;;;;;;;23.90;60.70;;;;;;5074608;28;19941;-59
2021/09/28 12:55:55;;;;;;;;;;;23.90;60.80;;;;;;5075979;28;19974;-59
2021/09/28 12:58:22;;;;;;;;;;;23.90;60.60;;;;;;5073695;28;20276;-60
2021/09/28 13:00:50;;;;;;;;;;;23.90;60.70;;;;;;5076738;28;20000;-59
2021/09/28 13:03:19;;;;;;;;;;;23.90;60.70;;;;;;5076604;28;19929;-58
2021/09/28 13:05:53;;;;;;;;;;;23.90;60.70;;;;;;5074646;28;20285;-60
2021/09/28 13:08:24;;;;;;;;;;;23.90;60.70;;;;;;5074569;28;19959;-59
2021/09/28 13:10:52;;;;;;;;;;;23.90;60.70;;;;;;5074038;28;19924;-59
2021/09/28 13:13:20;;;;;;;;;;;23.90;60.80;;;;;;5072133;28;20330;-60
2021/09/28 13:15:47;;;;;;;;;;;23.90;60.80;;;;;;5074021;28;20121;-59
2021/09/28 13:18:15;;;;;;;;;;;23.90;60.90;;;;;;5070841;28;19924;-59
2021/09/28 13:20:42;;;;;;;;;;;23.90;60.90;;;;;;5061503;28;19963;-59
2021/09/28 13:23:10;;;;;;;;;;;23.90;60.90;;;;;;5073987;28;19925;-59
2021/09/28 13:25:37;;;;;;;;;;;23.90;60.90;;;;;;5057978;28;20007;-59
2021/09/28 13:28:07;;;;;;;;;;;23.90;60.90;;;;;;5074763;28;19931;-60
2021/09/28 13:30:35;;;;;;;;;;;23.90;60.90;;;;;;5057953;28;19929;-59
2021/09/28 13:33:03;;;;;;;;;;;23.90;60.90;;;;;;5058763;28;19925;-59
2021/09/28 13:35:30;;;;;;;;;;;23.90;60.90;;;;;;5059950;28;19924;-58
2021/09/28 13:37:57;;;;;;;;;;;23.90;60.90;;;;;;5078916;28;20043;-60
2021/09/28 13:40:24;;;;;;;;;;;23.90;60.90;;;;;;5081362;28;19951;-59
2021/09/28 13:42:51;;;;;;;;;;;23.90;60.80;;;;;;5080859;28;19924;-59
2021/09/28 13:45:18;;;;;;;;;;;23.90;60.80;;;;;;5085047;28;19978;-58
2021/09/28 13:47:45;;;;;;;;;;;23.90;60.70;;;;;;5072905;28;20376;-60
2021/09/28 13:50:12;;;;;;;;;;;23.90;60.70;;;;;;5059220;28;19924;-59
2021/09/28 13:52:39;;;;;;;;;;;23.90;60.70;;;;;;5056017;28;19932;-59
2021/09/28 13:55:07;;;;;;;;;;;23.90;60.80;;;;;;5072335;28;19924;-59
2021/09/28 13:57:34;;;;;;;;;;;23.90;60.80;;;;;;5057175;28;20625;-59
2021/09/28 14:00:02;;;;;;;;;;;23.90;60.80;;;;;;5072305;28;20353;-59
2021/09/28 14:02:29;;;;;;;;;;;23.90;60.80;;;;;;5073065;28;19925;-59
2021/09/28 14:04:57;;;;;;;;;;;23.90;60.80;;;;;;5073570;28;19928;-59
2021/09/28 14:07:24;;;;;;;;;;;23.90;60.90;;;;;;5064988;28;20050;-59
2021/09/28 14:09:51;;;;;;;;;;;23.80;60.80;;;;;;5057451;28;19933;-58
2021/09/28 14:12:18;;;;;;;;;;;23.90;61.00;;;;;;5072862;28;20023;-59
2021/09/28 14:14:44;;;;;;;;;;;23.90;61.00;;;;;;5061301;28;19982;-59
2021/09/28 14:17:12;;;;;;;;;;;23.90;60.90;;;;;;5086678;28;20280;-59
2021/09/28 14:19:38;;;;;;;;;;;23.80;60.90;;;;;;5073374;28;19925;-59
2021/09/28 14:22:05;;;;;;;;;;;23.80;61.00;;;;;;5072066;28;20016;-59
2021/09/28 14:24:32;;;;;;;;;;;23.80;61.00;;;;;;5088847;28;19923;-58
2021/09/28 14:26:59;;;;;;;;;;;23.70;61.00;;;;;;5060208;28;19960;-58